createdAt,value
2022-08-03T00:00:21.178Z,3.60
2022-08-03T00:02:47.961Z,3.63
2022-08-03T00:05:14.606Z,3.63
2022-08-03T00:07:41.263Z,3.80
2022-08-03T00:10:08.449Z,3.83
2022-08-03T00:12:36.331Z,3.33
2022-08-03T00:15:03.615Z,3.63
2022-08-03T00:17:52.757Z,3.40
2022-08-03T00:20:21.612Z,3.80
2022-08-03T00:22:48.663Z,3.90
2022-08-03T00:25:15.395Z,3.73
2022-08-03T00:27:41.997Z,3.93
2022-08-03T00:30:09.366Z,4.10
2022-08-03T00:32:35.972Z,3.90
2022-08-03T00:35:04.356Z,3.60
2022-08-03T00:37:40.688Z,3.50
2022-08-03T00:40:10.571Z,3.90
2022-08-03T00:42:47.565Z,3.50
2022-08-03T00:45:14.666Z,3.70
2022-08-03T00:47:41.243Z,3.60
2022-08-03T00:50:08.144Z,3.53
2022-08-03T00:52:35.287Z,4.20
2022-08-03T00:55:03.750Z,3.40
2022-08-03T00:57:32.085Z,3.67
2022-08-03T01:00:00.129Z,3.40
2022-08-03T01:02:30.666Z,3.57
2022-08-03T01:04:57.317Z,3.73
2022-08-03T01:07:36.210Z,3.87
2022-08-03T01:10:28.616Z,4.07
2022-08-03T01:13:59.134Z,3.50
2022-08-03T01:16:35.964Z,4.03
2022-08-03T01:19:36.548Z,3.80
2022-08-03T01:22:47.388Z,3.80
2022-08-03T01:25:19.801Z,4.10
2022-08-03T01:28:01.158Z,3.77
2022-08-03T01:30:31.514Z,4.07
2022-08-03T01:33:03.740Z,3.70
2022-08-03T01:35:57.281Z,3.87
2022-08-03T01:38:35.722Z,3.60
2022-08-03T01:41:15.609Z,4.17
2022-08-03T01:44:27.212Z,3.70
2022-08-03T01:46:33.373Z,3.20
2022-08-03T01:49:01.061Z,4.20
2022-08-03T01:52:03.246Z,3.43
2022-08-03T01:54:26.068Z,4.00
2022-08-03T01:56:54.758Z,3.80
2022-08-03T01:59:22.652Z,4.27
2022-08-03T02:02:15.340Z,4.30
2022-08-03T02:04:38.666Z,3.97
2022-08-03T02:07:06.742Z,3.63
2022-08-03T02:09:36.928Z,4.00
2022-08-03T02:12:07.303Z,4.40
2022-08-03T02:14:34.833Z,3.70
2022-08-03T02:17:02.065Z,4.13
2022-08-03T02:19:35.510Z,4.60
2022-08-03T02:22:03.261Z,3.73
2022-08-03T02:24:31.804Z,4.17
2022-08-03T02:27:00.146Z,4.03
2022-08-03T02:29:38.732Z,4.20
2022-08-03T02:32:11.653Z,4.07
2022-08-03T02:34:39.998Z,4.43
2022-08-03T02:37:08.487Z,4.10
2022-08-03T02:39:36.673Z,3.97
2022-08-03T02:42:05.358Z,4.20
2022-08-03T02:44:34.714Z,4.17
2022-08-03T02:47:07.838Z,4.23
2022-08-03T02:49:50.470Z,4.10
2022-08-03T02:52:21.339Z,4.13
2022-08-03T02:54:51.122Z,4.67
2022-08-03T02:57:19.782Z,4.13
2022-08-03T02:59:47.070Z,5.00
2022-08-03T03:02:16.296Z,4.57
2022-08-03T03:05:51.153Z,4.70
2022-08-03T03:07:33.938Z,4.20
2022-08-03T03:10:18.871Z,4.40
2022-08-03T03:12:46.795Z,4.20
2022-08-03T03:15:13.496Z,4.53
2022-08-03T03:17:42.378Z,4.30
2022-08-03T03:20:09.483Z,4.67
2022-08-03T03:22:37.860Z,3.97
2022-08-03T03:25:07.327Z,4.40
2022-08-03T03:27:34.323Z,4.90
2022-08-03T03:30:01.775Z,4.63
2022-08-03T03:32:29.745Z,4.60
2022-08-03T03:34:59.059Z,4.20
2022-08-03T03:37:27.138Z,4.40
2022-08-03T03:39:54.821Z,4.70
2022-08-03T03:42:21.675Z,4.60
2022-08-03T03:44:48.475Z,4.37
2022-08-03T03:47:15.155Z,4.40
2022-08-03T03:49:43.966Z,4.43
2022-08-03T03:52:11.394Z,4.47
2022-08-03T03:54:42.631Z,4.20
2022-08-03T03:57:13.802Z,3.93
2022-08-03T03:59:43.938Z,4.40
2022-08-03T04:02:11.943Z,4.27
2022-08-03T04:04:57.597Z,4.73
2022-08-03T04:07:43.965Z,4.13
2022-08-03T04:10:32.618Z,4.20
2022-08-03T04:13:02.204Z,4.33
2022-08-03T04:15:31.311Z,4.70
2022-08-03T04:17:59.717Z,4.47
2022-08-03T04:20:30.418Z,4.70
2022-08-03T04:23:00.173Z,4.53
2022-08-03T04:25:30.632Z,4.43
2022-08-03T04:28:30.046Z,4.63
2022-08-03T04:30:50.833Z,4.53
2022-08-03T04:33:18.851Z,4.70
2022-08-03T04:36:00.880Z,4.67
2022-08-03T04:38:32.841Z,4.57
2022-08-03T04:41:00.991Z,4.67
2022-08-03T04:43:28.682Z,4.93
2022-08-03T04:45:56.724Z,4.30
2022-08-03T04:48:23.803Z,4.83
2022-08-03T04:50:50.757Z,4.37
2022-08-03T04:53:18.101Z,5.00
2022-08-03T04:55:46.096Z,4.43
2022-08-03T04:58:12.666Z,4.60
2022-08-03T05:00:39.342Z,4.83
2022-08-03T05:03:19.593Z,4.87
2022-08-03T05:06:09.621Z,4.40
2022-08-03T05:08:46.531Z,4.70
2022-08-03T05:11:15.198Z,5.20
2022-08-03T05:13:41.810Z,5.07
2022-08-03T05:16:08.509Z,5.27
2022-08-03T05:18:35.902Z,5.27
2022-08-03T05:21:02.560Z,5.70
2022-08-03T05:23:29.406Z,5.83
2022-08-03T05:25:56.115Z,5.60
2022-08-03T05:28:22.865Z,5.30
2022-08-03T05:30:49.516Z,5.53
2022-08-03T05:33:16.128Z,5.77
2022-08-03T05:36:01.223Z,5.50
2022-08-03T05:38:34.675Z,5.67
2022-08-03T05:41:21.021Z,5.43
2022-08-03T05:43:54.890Z,5.53
2022-08-03T05:46:22.897Z,5.40
2022-08-03T05:48:49.671Z,5.30
2022-08-03T05:51:16.489Z,4.93
2022-08-03T05:53:43.895Z,5.33
2022-08-03T05:56:14.983Z,5.73
2022-08-03T05:58:44.327Z,4.93
2022-08-03T06:01:11.031Z,4.83
2022-08-03T06:03:37.678Z,5.00
2022-08-03T06:06:04.410Z,4.87
2022-08-03T06:08:31.480Z,4.83
2022-08-03T06:10:58.753Z,4.67
2022-08-03T06:13:25.346Z,4.70
2022-08-03T06:15:52.365Z,5.10
2022-08-03T06:18:19.951Z,4.70
2022-08-03T06:20:47.181Z,4.77
2022-08-03T06:23:18.061Z,4.90
2022-08-03T06:25:45.926Z,4.77
2022-08-03T06:28:35.260Z,4.90
2022-08-03T06:31:01.376Z,4.57
2022-08-03T06:34:31.051Z,4.90
2022-08-03T06:36:15.218Z,4.70
2022-08-03T06:38:41.855Z,4.47
2022-08-03T06:41:08.460Z,4.67
2022-08-03T06:43:37.552Z,3.70
2022-08-03T06:46:08.064Z,4.83
2022-08-03T06:48:34.649Z,4.37
2022-08-03T06:51:01.217Z,4.50
2022-08-03T06:53:27.798Z,4.27
2022-08-03T06:55:55.189Z,4.63
2022-08-03T06:58:22.626Z,3.90
2022-08-03T07:00:49.299Z,4.33
2022-08-03T07:03:16.578Z,4.10
2022-08-03T07:05:43.762Z,4.40
2022-08-03T07:08:10.541Z,4.20
2022-08-03T07:10:37.236Z,4.63
2022-08-03T07:13:04.758Z,4.00
2022-08-03T07:15:53.970Z,4.20
2022-08-03T07:18:18.087Z,4.63
2022-08-03T07:20:55.724Z,4.17
2022-08-03T07:23:22.297Z,3.87
2022-08-03T07:25:48.872Z,4.47
2022-08-03T07:28:15.558Z,3.72
2022-08-03T07:30:42.231Z,3.53
2022-08-03T07:33:08.863Z,3.80
2022-08-03T07:35:35.446Z,3.55
2022-08-03T07:38:02.123Z,4.25
2022-08-03T07:40:31.704Z,3.45
2022-08-03T07:42:59.284Z,3.60
2022-08-03T07:45:26.701Z,3.55
2022-08-03T07:47:54.257Z,4.53
2022-08-03T07:50:23.760Z,3.92
2022-08-03T07:52:55.941Z,3.58
2022-08-03T07:55:25.418Z,3.60
2022-08-03T07:58:05.540Z,3.20
2022-08-03T08:00:32.739Z,2.92
2022-08-03T08:02:59.791Z,3.20
2022-08-03T08:05:27.948Z,3.28
2022-08-03T08:07:55.282Z,2.88
2022-08-03T08:10:22.558Z,2.80
2022-08-03T08:12:50.042Z,2.67
2022-08-03T08:15:17.102Z,2.90
2022-08-03T08:17:48.700Z,2.20
2022-08-03T08:20:27.649Z,2.00
2022-08-03T08:23:01.224Z,2.20
2022-08-03T08:25:30.497Z,2.17
2022-08-03T08:28:30.572Z,2.38
2022-08-03T08:30:53.918Z,2.25
2022-08-03T08:33:22.414Z,2.33
2022-08-03T08:35:51.282Z,2.20
2022-08-03T08:38:18.342Z,2.20
2022-08-03T08:40:45.570Z,2.20
2022-08-03T08:43:12.624Z,2.33
2022-08-03T08:45:41.570Z,2.50
2022-08-03T08:48:10.546Z,2.58
2022-08-03T08:50:38.658Z,2.40
2022-08-03T08:53:11.593Z,2.53
2022-08-03T08:55:59.817Z,2.03
2022-08-03T08:58:36.838Z,2.47
2022-08-03T09:01:04.555Z,2.40
2022-08-03T09:03:34.136Z,2.22
2022-08-03T09:06:03.153Z,2.30
2022-08-03T09:08:32.063Z,2.20
2022-08-03T09:10:59.905Z,2.33
2022-08-03T09:13:28.908Z,2.20
2022-08-03T09:16:11.903Z,2.20
2022-08-03T09:18:39.085Z,1.83
2022-08-03T09:21:35.999Z,2.20
2022-08-03T09:24:07.031Z,2.47
2022-08-03T09:26:37.752Z,1.92
2022-08-03T09:29:12.823Z,2.00
2022-08-03T09:31:43.530Z,1.70
2022-08-03T09:34:13.177Z,2.30
2022-08-03T09:36:45.668Z,2.30
2022-08-03T09:39:14.067Z,2.00
2022-08-03T09:41:42.448Z,1.90
2022-08-03T09:44:25.448Z,2.10
2022-08-03T09:46:57.177Z,1.90
2022-08-03T09:49:25.109Z,2.03
2022-08-03T09:52:32.366Z,2.58
2022-08-03T09:54:39.387Z,2.20
2022-08-03T09:57:06.417Z,2.08
2022-08-03T09:59:33.876Z,2.30
2022-08-03T10:02:01.784Z,2.38
2022-08-03T10:04:29.177Z,2.20
2022-08-03T10:07:08.343Z,2.45
2022-08-03T10:09:36.208Z,2.05
2022-08-03T10:12:09.501Z,2.20
2022-08-03T10:14:38.262Z,2.20
2022-08-03T10:17:05.472Z,2.25
2022-08-03T10:19:32.783Z,2.50
2022-08-03T10:22:13.461Z,2.28
2022-08-03T10:24:47.523Z,2.10
2022-08-03T10:27:16.566Z,2.30
2022-08-03T10:29:47.138Z,2.30
2022-08-03T10:32:30.147Z,2.33
2022-08-03T10:35:19.158Z,2.20
2022-08-03T10:38:03.136Z,2.28
2022-08-03T10:40:49.572Z,2.08
2022-08-03T10:43:42.175Z,2.30
2022-08-03T10:46:08.818Z,2.17
2022-08-03T10:48:36.766Z,2.22
2022-08-03T10:51:04.727Z,2.35
2022-08-03T10:53:47.742Z,2.28
2022-08-03T10:56:53.337Z,2.13
2022-08-03T10:59:46.747Z,2.17
2022-08-03T11:02:14.586Z,2.13
2022-08-03T11:04:42.693Z,2.20
2022-08-03T11:07:25.503Z,2.55
2022-08-03T11:09:58.219Z,2.20
2022-08-03T11:12:31.746Z,2.00
2022-08-03T11:15:01.793Z,2.08
2022-08-03T11:17:29.975Z,2.15
2022-08-03T11:19:59.858Z,2.13
2022-08-03T11:22:51.255Z,2.30
2022-08-03T11:25:53.630Z,2.17
2022-08-03T11:28:36.200Z,2.40
2022-08-03T11:31:50.990Z,2.25
2022-08-03T11:34:18.908Z,2.15
2022-08-03T11:37:04.470Z,2.40
2022-08-03T11:39:45.717Z,2.30
2022-08-03T11:42:26.651Z,2.08
2022-08-03T11:44:55.281Z,2.20
2022-08-03T11:47:23.943Z,2.10
2022-08-03T11:49:51.696Z,2.03
2022-08-03T11:52:19.438Z,2.30
2022-08-03T11:54:56.789Z,2.13
2022-08-03T11:59:17.314Z,2.25
2022-08-03T12:00:22.097Z,2.20
2022-08-03T12:02:55.042Z,2.40
2022-08-03T12:05:22.134Z,2.20
2022-08-03T12:08:03.971Z,2.10
2022-08-03T12:10:33.750Z,2.40
2022-08-03T12:13:01.790Z,2.20
2022-08-03T12:15:35.870Z,2.20
2022-08-03T12:18:04.281Z,2.17
2022-08-03T12:20:35.388Z,2.17
2022-08-03T12:23:04.462Z,2.00
2022-08-03T12:25:38.611Z,2.60
2022-08-03T12:28:36.462Z,2.30
2022-08-03T12:30:55.446Z,2.20
2022-08-03T12:33:26.898Z,2.58
2022-08-03T12:36:10.369Z,2.30
2022-08-03T12:38:39.528Z,2.45
2022-08-03T12:41:08.538Z,2.28
2022-08-03T12:43:36.638Z,2.20
2022-08-03T12:46:10.674Z,2.15
2022-08-03T12:48:37.844Z,2.35
2022-08-03T12:51:11.368Z,2.20
2022-08-03T12:53:38.530Z,2.33
2022-08-03T12:56:06.488Z,2.58
2022-08-03T12:58:35.480Z,2.20
2022-08-03T13:01:10.368Z,2.40
2022-08-03T13:03:55.700Z,2.40
2022-08-03T13:06:26.369Z,2.20
2022-08-03T13:09:06.557Z,1.90
2022-08-03T13:11:55.628Z,2.10
2022-08-03T13:14:21.062Z,2.42
2022-08-03T13:16:51.523Z,2.30
2022-08-03T13:19:18.656Z,2.35
2022-08-03T13:22:01.333Z,2.10
2022-08-03T13:24:31.976Z,2.30
2022-08-03T13:26:59.529Z,2.22
2022-08-03T13:29:26.611Z,2.15
2022-08-03T13:31:55.791Z,2.20
2022-08-03T13:34:23.866Z,2.40
2022-08-03T13:37:09.394Z,2.10
2022-08-03T13:39:57.630Z,2.22
2022-08-03T13:42:23.268Z,2.40
2022-08-03T13:44:49.849Z,2.45
2022-08-03T13:47:16.443Z,2.10
2022-08-03T13:49:59.358Z,2.53
2022-08-03T13:52:28.031Z,2.53
2022-08-03T13:54:54.760Z,2.03
2022-08-03T13:58:03.294Z,2.38
2022-08-03T14:00:09.750Z,2.20
2022-08-03T14:02:37.209Z,2.13
2022-08-03T14:05:04.167Z,2.53
2022-08-03T14:07:34.109Z,2.30
2022-08-03T14:10:02.289Z,2.20
2022-08-03T14:12:31.896Z,2.30
2022-08-03T14:15:01.705Z,2.53
2022-08-03T14:17:42.112Z,2.30
2022-08-03T14:20:36.302Z,2.35
2022-08-03T14:23:00.999Z,2.22
2022-08-03T14:25:31.613Z,2.10
2022-08-03T14:28:11.993Z,2.13
2022-08-03T14:30:40.128Z,2.20
2022-08-03T14:33:08.291Z,2.28
2022-08-03T14:35:37.571Z,2.30
2022-08-03T14:38:04.567Z,2.72
2022-08-03T14:40:31.660Z,2.15
2022-08-03T14:43:00.759Z,2.50
2022-08-03T14:45:34.201Z,2.30
2022-08-03T14:50:29.532Z,2.30
2022-08-03T14:50:56.615Z,2.20
2022-08-03T14:53:23.774Z,2.35
2022-08-03T14:55:51.974Z,2.60
2022-08-03T14:58:21.047Z,2.05
2022-08-03T15:00:48.779Z,2.38
2022-08-03T15:03:17.247Z,2.33
2022-08-03T15:05:44.593Z,2.47
2022-08-03T15:08:11.538Z,2.10
2022-08-03T15:10:43.940Z,2.65
2022-08-03T15:13:15.852Z,2.20
2022-08-03T15:15:42.658Z,2.03
2022-08-03T15:18:09.403Z,2.13
2022-08-03T15:20:44.559Z,2.30
2022-08-03T15:23:12.464Z,2.35
2022-08-03T15:26:06.456Z,2.42
2022-08-03T15:28:25.691Z,2.28
2022-08-03T15:30:52.977Z,2.40
2022-08-03T15:33:19.808Z,2.30
2022-08-03T15:35:47.530Z,2.22
2022-08-03T15:38:14.400Z,2.30
2022-08-03T15:40:41.233Z,2.38
2022-08-03T15:43:08.083Z,2.05
2022-08-03T15:45:35.364Z,2.40
2022-08-03T15:48:03.373Z,2.08
2022-08-03T15:50:29.987Z,2.45
2022-08-03T15:52:56.868Z,2.40
2022-08-03T15:55:26.581Z,2.13
2022-08-03T15:59:03.849Z,2.60
2022-08-03T16:00:41.211Z,1.88
2022-08-03T16:03:07.989Z,2.22
2022-08-03T16:05:34.759Z,1.90
2022-08-03T16:08:03.544Z,2.65
2022-08-03T16:10:32.214Z,2.13
2022-08-03T16:12:59.803Z,2.10
2022-08-03T16:15:26.480Z,2.13
2022-08-03T16:17:53.077Z,2.03
2022-08-03T16:20:31.711Z,2.00
2022-08-03T16:23:09.141Z,1.98
2022-08-03T16:25:39.167Z,2.10
2022-08-03T16:28:13.512Z,2.13
2022-08-03T16:30:42.743Z,2.42
2022-08-03T16:33:10.431Z,2.00
2022-08-03T16:35:38.220Z,2.40
2022-08-03T16:38:09.939Z,2.08
2022-08-03T16:40:37.863Z,2.30
2022-08-03T16:43:18.435Z,2.20
2022-08-03T16:45:47.063Z,2.15
2022-08-03T16:48:16.810Z,2.33
2022-08-03T16:50:44.385Z,2.10
2022-08-03T16:53:15.686Z,2.33
2022-08-03T16:55:53.231Z,2.50
2022-08-03T16:58:34.627Z,2.10
2022-08-03T17:01:22.008Z,2.22
2022-08-03T17:04:01.951Z,2.20
2022-08-03T17:06:34.489Z,1.95
2022-08-03T17:09:08.679Z,2.08
2022-08-03T17:11:38.688Z,2.20
2022-08-03T17:14:12.487Z,2.08
2022-08-03T17:16:39.524Z,2.53
2022-08-03T17:19:20.481Z,2.55
2022-08-03T17:21:53.878Z,2.03
2022-08-03T17:24:31.094Z,2.15
2022-08-03T17:27:01.178Z,2.17
2022-08-03T17:29:29.734Z,2.13
2022-08-03T17:31:56.798Z,2.17
2022-08-03T17:34:26.264Z,2.10
2022-08-03T17:37:27.132Z,2.15
2022-08-03T17:39:58.171Z,1.90
2022-08-03T17:45:15.666Z,2.20
2022-08-03T17:48:00.250Z,2.35
2022-08-03T17:50:40.319Z,2.10
2022-08-03T17:53:23.543Z,2.08
2022-08-03T17:56:09.961Z,2.05
2022-08-03T17:59:01.216Z,2.20
2022-08-03T18:02:12.208Z,5.45
2022-08-03T18:05:00.769Z,5.15
2022-08-03T18:07:41.136Z,3.25
2022-08-03T18:10:11.503Z,3.30
2022-08-03T18:12:51.755Z,3.03
2022-08-03T18:15:23.549Z,2.10
2022-08-03T18:17:55.159Z,2.05
2022-08-03T18:20:34.792Z,2.10
2022-08-03T18:23:08.187Z,2.67
2022-08-03T18:25:45.554Z,2.53
2022-08-03T18:28:18.858Z,2.80
2022-08-03T18:30:53.366Z,2.30
2022-08-03T18:34:17.133Z,2.47
2022-08-03T18:36:11.087Z,2.30
2022-08-03T18:38:46.472Z,2.50
2022-08-03T18:41:19.479Z,2.50
2022-08-03T18:44:07.829Z,2.65
2022-08-03T18:46:48.774Z,2.78
2022-08-03T18:49:18.128Z,2.33
2022-08-03T18:51:47.159Z,2.70
2022-08-03T18:54:45.536Z,2.50
2022-08-03T18:57:18.808Z,2.50
2022-08-03T19:00:02.690Z,2.63
2022-08-03T19:02:36.178Z,2.38
2022-08-03T19:05:09.414Z,2.72
2022-08-03T19:07:38.110Z,3.00
2022-08-03T19:10:10.379Z,2.47
2022-08-03T19:12:40.117Z,2.58
2022-08-03T19:15:13.264Z,2.55
2022-08-03T19:17:52.777Z,3.10
2022-08-03T19:20:38.034Z,2.92
2022-08-03T19:23:04.632Z,2.47
2022-08-03T19:25:40.566Z,3.00
2022-08-03T19:28:09.097Z,2.83
2022-08-03T19:30:39.524Z,2.47
2022-08-03T19:33:15.170Z,2.53
2022-08-03T19:35:54.784Z,2.70
2022-08-03T19:38:28.311Z,2.55
2022-08-03T19:41:02.286Z,2.80
2022-08-03T19:43:52.542Z,2.70
2022-08-03T19:46:22.620Z,2.92
2022-08-03T19:49:10.691Z,2.70
2022-08-03T19:54:52.768Z,2.67
2022-08-03T19:57:27.055Z,2.97
2022-08-03T19:59:55.530Z,2.95
2022-08-03T20:02:26.416Z,2.80
2022-08-03T20:04:56.824Z,3.10
2022-08-03T20:07:24.619Z,3.00
2022-08-03T20:09:56.317Z,3.00
2022-08-03T20:12:27.365Z,2.95
2022-08-03T20:14:56.498Z,3.03
2022-08-03T20:17:23.293Z,2.80
2022-08-03T20:20:10.945Z,2.70
2022-08-03T20:22:52.978Z,2.78
2022-08-03T20:25:48.888Z,3.10
2022-08-03T20:28:29.264Z,2.88
2022-08-03T20:31:02.320Z,3.22
2022-08-03T20:33:48.630Z,3.30
2022-08-03T20:36:27.570Z,3.03
2022-08-03T20:39:12.561Z,3.43
2022-08-03T20:41:56.950Z,3.38
2022-08-03T20:44:35.708Z,2.70
2022-08-03T20:47:23.975Z,2.55
2022-08-03T20:49:57.729Z,3.25
2022-08-03T20:52:26.184Z,3.35
2022-08-03T20:54:53.360Z,2.70
2022-08-03T20:57:20.639Z,3.05
2022-08-03T20:59:51.115Z,2.60
2022-08-03T21:08:05.227Z,2.22
2022-08-03T21:10:38.226Z,2.25
2022-08-03T21:13:03.088Z,2.88
2022-08-03T21:13:04.062Z,2.25
2022-08-03T21:13:07.970Z,2.33
2022-08-03T21:13:13.491Z,2.40
2022-08-03T21:13:43.885Z,2.30
2022-08-03T21:16:14.936Z,2.05
2022-08-03T21:19:03.329Z,2.22
2022-08-03T21:21:32.091Z,2.45
2022-08-03T21:24:00.397Z,2.22
2022-08-03T21:26:30.920Z,2.10
2022-08-03T21:28:57.638Z,1.90
2022-08-03T21:31:26.777Z,2.58
2022-08-03T21:34:05.328Z,2.05
2022-08-03T21:36:34.903Z,2.25
2022-08-03T21:39:02.635Z,2.38
2022-08-03T21:41:32.309Z,2.65
2022-08-03T21:44:00.144Z,2.30
2022-08-03T21:46:29.456Z,2.10
2022-08-03T21:50:06.170Z,2.13
2022-08-03T21:51:49.841Z,2.50
2022-08-03T21:54:18.642Z,2.20
2022-08-03T21:56:47.993Z,2.63
2022-08-03T21:59:17.807Z,2.27
2022-08-03T22:01:49.238Z,2.23
2022-08-03T22:04:50.267Z,2.17
2022-08-03T22:07:08.463Z,2.50
2022-08-03T22:09:36.317Z,2.10
2022-08-03T22:12:03.861Z,2.40
2022-08-03T22:14:33.041Z,2.77
2022-08-03T22:17:00.655Z,2.87
2022-08-03T22:19:30.235Z,2.93
2022-08-03T22:21:58.041Z,3.67
2022-08-03T22:24:28.584Z,3.10
2022-08-03T22:27:13.892Z,3.37
2022-08-03T22:29:42.402Z,3.70
2022-08-03T22:32:09.265Z,3.30
2022-08-03T22:34:36.933Z,3.30
2022-08-03T22:37:06.208Z,3.73
2022-08-03T22:39:35.037Z,3.50
2022-08-03T22:42:05.803Z,3.53
2022-08-03T22:44:32.581Z,3.40
2022-08-03T22:46:59.687Z,3.50
2022-08-03T22:49:27.975Z,3.40
2022-08-03T22:51:55.896Z,3.30
2022-08-03T22:54:23.566Z,3.67
2022-08-03T22:56:51.178Z,3.60
2022-08-03T22:59:41.006Z,4.10
2022-08-03T23:02:20.766Z,3.63
2022-08-03T23:04:54.853Z,3.70
2022-08-03T23:07:33.185Z,3.37
2022-08-03T23:10:02.032Z,4.00
2022-08-03T23:12:30.533Z,3.60
2022-08-03T23:15:01.541Z,4.17
2022-08-03T23:17:30.971Z,3.40
2022-08-03T23:20:06.308Z,3.50
2022-08-03T23:22:34.578Z,3.77
2022-08-03T23:25:03.814Z,4.20
2022-08-03T23:27:32.441Z,4.37
2022-08-03T23:30:01.097Z,4.17
2022-08-03T23:32:30.826Z,3.93
2022-08-03T23:35:22.136Z,4.10
2022-08-03T23:38:04.372Z,4.50
2022-08-03T23:40:43.987Z,4.17
2022-08-03T23:43:44.982Z,4.20
2022-08-03T23:46:07.574Z,4.20
2022-08-03T23:48:34.581Z,4.63
2022-08-03T23:51:08.652Z,4.33
2022-08-03T23:53:48.839Z,4.03
2022-08-03T23:56:34.275Z,4.13
2022-08-03T23:59:21.829Z,4.03
